createdAt,value
2018-05-08T00:00:43.197Z,4.10
2018-05-08T00:01:43.109Z,4.00
2018-05-08T00:02:43.007Z,4.10
2018-05-08T00:03:42.914Z,3.90
2018-05-08T00:04:42.811Z,4.00
2018-05-08T00:05:42.719Z,3.80
2018-05-08T00:06:42.616Z,3.80
2018-05-08T00:07:42.524Z,4.10
2018-05-08T00:08:42.435Z,3.70
2018-05-08T00:09:42.332Z,4.00
2018-05-08T00:10:42.241Z,3.90
2018-05-08T00:11:42.139Z,4.10
2018-05-08T00:12:42.047Z,3.80
2018-05-08T00:13:41.942Z,4.10
2018-05-08T00:14:41.854Z,3.90
2018-05-08T00:15:41.750Z,3.70
2018-05-08T00:16:41.659Z,4.10
2018-05-08T00:17:41.560Z,3.80
2018-05-08T00:18:41.465Z,3.60
2018-05-08T00:19:41.378Z,3.90
2018-05-08T00:20:41.272Z,3.80
2018-05-08T00:21:41.179Z,4.10
2018-05-08T00:22:41.077Z,3.90
2018-05-08T00:23:40.985Z,4.10
2018-05-08T00:24:40.881Z,4.00
2018-05-08T00:25:40.791Z,4.20
2018-05-08T00:26:40.692Z,3.80
2018-05-08T00:27:40.599Z,3.60
2018-05-08T00:28:40.495Z,3.90
2018-05-08T00:29:40.407Z,3.80
2018-05-08T00:30:40.301Z,3.80
2018-05-08T00:31:40.210Z,3.50
2018-05-08T00:32:40.118Z,3.90
2018-05-08T00:33:40.017Z,3.80
2018-05-08T00:34:39.923Z,3.60
2018-05-08T00:35:39.820Z,3.90
2018-05-08T00:36:39.729Z,4.10
2018-05-08T00:37:39.631Z,3.70
2018-05-08T00:38:39.541Z,3.70
2018-05-08T00:39:39.434Z,4.20
2018-05-08T00:40:39.343Z,4.30
2018-05-08T00:41:39.237Z,3.50
2018-05-08T00:42:39.147Z,3.80
2018-05-08T00:43:39.044Z,3.80
2018-05-08T00:44:38.951Z,3.90
2018-05-08T00:45:38.848Z,4.20
2018-05-08T00:46:38.764Z,4.00
2018-05-08T00:47:38.655Z,3.80
2018-05-08T00:48:38.566Z,3.70
2018-05-08T00:49:38.463Z,4.10
2018-05-08T00:50:38.374Z,4.20
2018-05-08T00:51:38.269Z,4.20
2018-05-08T00:52:38.177Z,3.90
2018-05-08T00:53:38.075Z,3.80
2018-05-08T00:54:37.982Z,3.80
2018-05-08T00:55:37.879Z,4.00
2018-05-08T00:56:37.789Z,3.80
2018-05-08T00:57:37.690Z,4.00
2018-05-08T00:58:37.596Z,3.70
2018-05-08T00:59:37.504Z,3.60
2018-05-08T01:00:37.401Z,4.00
2018-05-08T01:01:37.303Z,4.00
2018-05-08T01:02:37.208Z,3.70
2018-05-08T01:03:37.116Z,3.90
2018-05-08T01:04:37.013Z,3.90
2018-05-08T01:05:36.909Z,4.10
2018-05-08T01:06:36.819Z,4.00
2018-05-08T01:07:36.726Z,3.60
2018-05-08T01:08:36.626Z,4.20
2018-05-08T01:09:36.534Z,3.70
2018-05-08T01:10:36.431Z,4.20
2018-05-08T01:11:36.390Z,3.80
2018-05-08T01:12:36.249Z,4.10
2018-05-08T01:13:36.144Z,3.80
2018-05-08T01:14:36.041Z,3.80
2018-05-08T01:15:35.949Z,3.90
2018-05-08T01:16:35.846Z,4.20
2018-05-08T01:17:35.756Z,4.00
2018-05-08T01:18:35.653Z,3.90
2018-05-08T01:19:35.561Z,4.40
2018-05-08T01:20:35.457Z,3.70
2018-05-08T01:21:35.370Z,3.90
2018-05-08T01:22:35.266Z,3.90
2018-05-08T01:23:35.175Z,3.50
2018-05-08T01:24:35.071Z,3.70
2018-05-08T01:25:34.980Z,4.30
2018-05-08T01:26:34.876Z,4.00
2018-05-08T01:27:34.784Z,4.20
2018-05-08T01:28:34.680Z,4.00
2018-05-08T01:29:34.594Z,4.20
2018-05-08T01:30:34.490Z,4.10
2018-05-08T01:31:34.431Z,3.80
2018-05-08T01:32:34.294Z,3.90
2018-05-08T01:33:34.207Z,4.30
2018-05-08T01:34:34.101Z,4.10
2018-05-08T01:35:34.010Z,4.30
2018-05-08T01:36:33.907Z,3.90
2018-05-08T01:37:33.814Z,4.10
2018-05-08T01:38:33.711Z,4.10
2018-05-08T01:39:33.619Z,4.20
2018-05-08T01:40:33.816Z,4.00
2018-05-08T01:41:33.428Z,4.20
2018-05-08T01:42:33.326Z,3.70
2018-05-08T01:43:33.241Z,4.20
2018-05-08T01:44:33.130Z,4.10
2018-05-08T01:45:33.038Z,4.30
2018-05-08T01:46:32.934Z,3.90
2018-05-08T01:47:32.842Z,4.00
2018-05-08T01:48:32.740Z,4.40
2018-05-08T01:49:32.649Z,4.40
2018-05-08T01:50:32.549Z,4.10
2018-05-08T01:51:32.455Z,4.20
2018-05-08T01:52:32.351Z,4.20
2018-05-08T01:53:32.264Z,4.30
2018-05-08T01:54:32.160Z,3.90
2018-05-08T01:55:32.068Z,4.40
2018-05-08T01:56:31.965Z,4.10
2018-05-08T01:57:31.873Z,3.90
2018-05-08T01:58:31.770Z,4.00
2018-05-08T01:59:31.679Z,4.40
2018-05-08T02:00:31.888Z,4.60
2018-05-08T02:01:31.488Z,4.00
2018-05-08T02:02:31.384Z,4.00
2018-05-08T02:03:31.293Z,4.10
2018-05-08T02:04:31.189Z,4.70
2018-05-08T02:05:31.108Z,4.70
2018-05-08T02:06:31.011Z,4.20
2018-05-08T02:07:30.904Z,4.20
2018-05-08T02:08:30.805Z,4.30
2018-05-08T02:09:30.709Z,4.20
2018-05-08T02:10:30.606Z,4.70
2018-05-08T02:11:30.514Z,4.30
2018-05-08T02:12:30.414Z,4.60
2018-05-08T02:13:30.326Z,4.20
2018-05-08T02:14:30.219Z,4.60
2018-05-08T02:15:30.128Z,4.10
2018-05-08T02:16:30.025Z,4.70
2018-05-08T02:17:29.920Z,4.50
2018-05-08T02:18:29.834Z,4.50
2018-05-08T02:19:29.726Z,4.40
2018-05-08T02:20:29.883Z,4.50
2018-05-08T02:21:29.533Z,4.70
2018-05-08T02:22:29.443Z,4.70
2018-05-08T02:23:29.340Z,4.60
2018-05-08T02:24:29.248Z,5.30
2018-05-08T02:25:29.143Z,4.60
2018-05-08T02:26:29.053Z,4.40
2018-05-08T02:27:28.950Z,4.40
2018-05-08T02:28:28.858Z,4.40
2018-05-08T02:29:28.756Z,4.40
2018-05-08T02:30:28.667Z,4.50
2018-05-08T02:31:28.575Z,4.60
2018-05-08T02:32:28.472Z,4.60
2018-05-08T02:33:28.366Z,4.90
2018-05-08T02:34:28.276Z,4.60
2018-05-08T02:35:28.183Z,4.60
2018-05-08T02:36:28.081Z,5.00
2018-05-08T02:37:27.977Z,4.60
2018-05-08T02:38:27.890Z,4.90
2018-05-08T02:39:27.784Z,4.60
2018-05-08T02:40:27.993Z,4.30
2018-05-08T02:41:27.591Z,4.80
2018-05-08T02:42:27.502Z,4.80
2018-05-08T02:43:27.399Z,4.90
2018-05-08T02:44:27.299Z,4.60
2018-05-08T02:45:27.201Z,4.40
2018-05-08T02:46:27.099Z,4.50
2018-05-08T02:47:27.010Z,4.80
2018-05-08T02:48:26.904Z,4.80
2018-05-08T02:49:26.817Z,4.80
2018-05-08T02:50:26.712Z,4.70
2018-05-08T02:51:26.621Z,4.80
2018-05-08T02:52:26.540Z,4.50
2018-05-08T02:53:26.426Z,4.50
2018-05-08T02:54:26.323Z,4.60
2018-05-08T02:55:26.233Z,4.70
2018-05-08T02:56:26.130Z,4.70
2018-05-08T02:57:26.037Z,4.50
2018-05-08T02:58:25.933Z,4.40
2018-05-08T02:59:25.842Z,4.70
2018-05-08T03:00:25.741Z,5.30
2018-05-08T03:01:25.638Z,4.70
2018-05-08T03:02:25.547Z,4.90
2018-05-08T03:03:25.446Z,4.30
2018-05-08T03:04:25.358Z,5.10
2018-05-08T03:05:25.248Z,4.70
2018-05-08T03:06:25.157Z,4.70
2018-05-08T03:07:25.053Z,4.80
2018-05-08T03:08:24.963Z,5.10
2018-05-08T03:09:24.864Z,5.20
2018-05-08T03:10:24.768Z,5.10
2018-05-08T03:11:24.665Z,5.00
2018-05-08T03:12:24.575Z,4.80
2018-05-08T03:13:24.473Z,4.80
2018-05-08T03:14:24.370Z,4.90
2018-05-08T03:15:24.273Z,5.20
2018-05-08T03:16:24.175Z,4.80
2018-05-08T03:17:24.083Z,4.60
2018-05-08T03:18:23.980Z,4.70
2018-05-08T03:19:23.888Z,4.90
2018-05-08T03:20:24.086Z,5.00
2018-05-08T03:21:23.696Z,4.80
2018-05-08T03:22:23.621Z,5.10
2018-05-08T03:23:23.503Z,4.90
2018-05-08T03:24:23.400Z,5.00
2018-05-08T03:25:23.312Z,5.30
2018-05-08T03:26:23.207Z,5.20
2018-05-08T03:27:23.113Z,4.70
2018-05-08T03:28:23.010Z,5.40
2018-05-08T03:29:22.904Z,5.10
2018-05-08T03:30:23.064Z,5.00
2018-05-08T03:31:22.713Z,5.10
2018-05-08T03:32:22.619Z,5.00
2018-05-08T03:33:22.518Z,4.90
2018-05-08T03:34:22.428Z,5.20
2018-05-08T03:35:22.325Z,4.70
2018-05-08T03:36:22.246Z,5.30
2018-05-08T03:37:22.128Z,5.50
2018-05-08T03:38:22.038Z,5.40
2018-05-08T03:39:21.940Z,5.30
2018-05-08T03:40:21.843Z,5.60
2018-05-08T03:41:21.740Z,5.30
2018-05-08T03:42:21.636Z,5.20
2018-05-08T03:43:21.547Z,5.70
2018-05-08T03:44:21.443Z,5.30
2018-05-08T03:45:21.353Z,5.30
2018-05-08T03:46:21.250Z,4.80
2018-05-08T03:47:21.160Z,5.30
2018-05-08T03:48:21.057Z,4.90
2018-05-08T03:49:20.976Z,4.90
2018-05-08T03:50:20.860Z,5.00
2018-05-08T03:51:20.769Z,5.10
2018-05-08T03:52:20.667Z,5.70
2018-05-08T03:53:20.567Z,5.30
2018-05-08T03:54:20.474Z,5.60
2018-05-08T03:55:20.373Z,5.10
2018-05-08T03:56:20.281Z,5.20
2018-05-08T03:57:20.234Z,5.40
2018-05-08T03:58:20.086Z,5.00
2018-05-08T03:59:19.983Z,5.70
2018-05-08T04:00:19.892Z,5.20
2018-05-08T04:01:19.787Z,5.00
2018-05-08T04:02:19.695Z,5.70
2018-05-08T04:03:19.592Z,5.40
2018-05-08T04:04:19.490Z,5.30
2018-05-08T04:05:19.401Z,5.20
2018-05-08T04:06:19.309Z,5.60
2018-05-08T04:07:19.210Z,5.50
2018-05-08T04:08:19.156Z,5.60
2018-05-08T04:09:19.010Z,5.30
2018-05-08T04:10:18.908Z,5.20
2018-05-08T04:11:18.816Z,5.00
2018-05-08T04:12:18.725Z,5.40
2018-05-08T04:13:18.623Z,5.40
2018-05-08T04:14:18.519Z,5.20
2018-05-08T04:15:18.427Z,5.20
2018-05-08T04:16:18.325Z,5.60
2018-05-08T04:17:18.236Z,5.00
2018-05-08T04:18:18.133Z,5.50
2018-05-08T04:19:18.041Z,5.30
2018-05-08T04:20:18.238Z,5.40
2018-05-08T04:21:17.845Z,5.40
2018-05-08T04:22:17.743Z,5.60
2018-05-08T04:23:17.651Z,5.90
2018-05-08T04:24:17.548Z,5.60
2018-05-08T04:25:17.463Z,5.50
2018-05-08T04:26:17.356Z,5.20
2018-05-08T04:27:17.264Z,5.20
2018-05-08T04:28:17.175Z,5.50
2018-05-08T04:29:17.070Z,5.60
2018-05-08T04:30:16.966Z,5.80
2018-05-08T04:31:16.874Z,5.60
2018-05-08T04:32:16.783Z,5.30
2018-05-08T04:33:16.683Z,5.50
2018-05-08T04:34:16.591Z,5.40
2018-05-08T04:35:16.487Z,5.40
2018-05-08T04:36:16.398Z,5.40
2018-05-08T04:37:16.293Z,5.60
2018-05-08T04:38:16.203Z,5.10
2018-05-08T04:39:16.111Z,5.50
2018-05-08T04:40:16.013Z,5.60
2018-05-08T04:41:15.919Z,5.60
2018-05-08T04:42:15.829Z,5.90
2018-05-08T04:43:15.725Z,6.00
2018-05-08T04:44:15.633Z,5.60
2018-05-08T04:45:15.793Z,6.00
2018-05-08T04:46:15.451Z,5.70
2018-05-08T04:47:15.348Z,6.10
2018-05-08T04:48:15.257Z,5.80
2018-05-08T04:49:15.166Z,5.70
2018-05-08T04:50:15.078Z,6.00
2018-05-08T04:51:14.972Z,6.00
2018-05-08T04:52:14.880Z,5.90
2018-05-08T04:53:14.791Z,5.70
2018-05-08T04:54:14.691Z,6.20
2018-05-08T04:55:14.600Z,5.80
2018-05-08T04:56:14.514Z,6.20
2018-05-08T04:57:14.412Z,6.30
2018-05-08T04:58:14.322Z,5.80
2018-05-08T04:59:14.231Z,5.70
2018-05-08T05:00:14.129Z,6.10
2018-05-08T05:01:14.040Z,6.10
2018-05-08T05:02:13.947Z,6.10
2018-05-08T05:03:13.862Z,6.10
2018-05-08T05:04:13.765Z,6.30
2018-05-08T05:05:13.667Z,6.60
2018-05-08T05:06:13.573Z,6.20
2018-05-08T05:07:13.482Z,6.40
2018-05-08T05:08:13.393Z,6.10
2018-05-08T05:09:13.298Z,6.00
2018-05-08T05:10:13.208Z,5.90
2018-05-08T05:11:13.176Z,6.30
2018-05-08T05:12:13.027Z,6.20
2018-05-08T05:13:12.925Z,6.40
2018-05-08T05:14:12.834Z,6.70
2018-05-08T05:15:12.743Z,6.30
2018-05-08T05:16:12.669Z,6.40
2018-05-08T05:17:12.563Z,6.00
2018-05-08T05:18:12.471Z,6.00
2018-05-08T05:19:12.382Z,6.50
2018-05-08T05:20:12.289Z,6.20
2018-05-08T05:21:12.185Z,6.50
2018-05-08T05:22:12.094Z,6.50
2018-05-08T05:23:12.003Z,6.70
2018-05-08T05:24:11.912Z,6.70
2018-05-08T05:25:11.822Z,6.60
2018-05-08T05:26:11.732Z,6.70
2018-05-08T05:27:11.641Z,6.30
2018-05-08T05:28:11.552Z,6.80
2018-05-08T05:29:11.457Z,6.40
2018-05-08T05:30:11.368Z,6.50
2018-05-08T05:31:11.276Z,6.70
2018-05-08T05:32:11.185Z,6.40
2018-05-08T05:33:11.098Z,6.40
2018-05-08T05:34:11.005Z,6.90
2018-05-08T05:35:10.913Z,6.80
2018-05-08T05:36:10.823Z,6.80
2018-05-08T05:37:10.735Z,7.20
2018-05-08T05:38:10.659Z,6.60
2018-05-08T05:39:10.567Z,6.80
2018-05-08T05:40:10.723Z,6.80
2018-05-08T05:41:10.381Z,6.80
2018-05-08T05:42:10.289Z,6.70
2018-05-08T05:43:10.200Z,7.00
2018-05-08T05:44:10.108Z,6.80
2018-05-08T05:45:10.021Z,7.00
2018-05-08T05:46:09.929Z,6.70
2018-05-08T05:47:09.856Z,6.70
2018-05-08T05:48:09.747Z,6.20
2018-05-08T05:49:09.658Z,7.00
2018-05-08T05:50:09.567Z,7.00
2018-05-08T05:51:09.487Z,6.80
2018-05-08T05:52:09.400Z,7.50
2018-05-08T05:53:09.304Z,7.20
2018-05-08T05:54:09.213Z,6.80
2018-05-08T05:55:09.123Z,6.80
2018-05-08T05:56:09.032Z,6.80
2018-05-08T05:57:08.940Z,6.90
2018-05-08T05:58:08.850Z,6.70
2018-05-08T05:59:08.772Z,7.20
2018-05-08T06:00:08.997Z,7.00
2018-05-08T06:01:08.591Z,7.30
2018-05-08T06:02:08.498Z,6.90
2018-05-08T06:03:08.484Z,6.90
2018-05-08T06:04:08.317Z,6.90
2018-05-08T06:05:08.238Z,7.00
2018-05-08T06:06:08.149Z,7.10
2018-05-08T06:07:08.062Z,6.90
2018-05-08T06:08:07.966Z,7.10
2018-05-08T06:09:07.875Z,7.30
2018-05-08T06:10:07.790Z,6.80
2018-05-08T06:11:07.706Z,7.60
2018-05-08T06:12:07.614Z,7.00
2018-05-08T06:13:07.526Z,7.20
2018-05-08T06:14:07.433Z,6.70
2018-05-08T06:15:07.343Z,7.30
2018-05-08T06:16:07.253Z,7.10
2018-05-08T06:17:07.174Z,7.10
2018-05-08T06:18:07.084Z,6.50
2018-05-08T06:19:06.991Z,7.20
2018-05-08T06:20:07.151Z,6.80
2018-05-08T06:21:06.827Z,7.20
2018-05-08T06:22:06.731Z,7.30
2018-05-08T06:23:06.642Z,6.90
2018-05-08T06:24:06.550Z,6.90
2018-05-08T06:25:06.472Z,7.00
2018-05-08T06:26:06.382Z,6.80
2018-05-08T06:27:06.292Z,7.20
2018-05-08T06:28:06.201Z,7.40
2018-05-08T06:29:06.110Z,6.90
2018-05-08T06:30:06.031Z,6.90
2018-05-08T06:31:05.940Z,6.70
2018-05-08T06:32:05.850Z,6.60
2018-05-08T06:33:05.759Z,7.00
2018-05-08T06:34:05.680Z,7.50
2018-05-08T06:35:05.604Z,6.60
2018-05-08T06:36:05.498Z,6.60
2018-05-08T06:37:05.419Z,6.80
2018-05-08T06:38:05.329Z,6.70
2018-05-08T06:39:05.240Z,7.00
2018-05-08T06:40:05.155Z,6.60
2018-05-08T06:41:05.068Z,6.90
2018-05-08T06:42:04.979Z,6.50
2018-05-08T06:43:04.888Z,7.10
2018-05-08T06:44:04.818Z,7.00
2018-05-08T06:45:04.719Z,6.30
2018-05-08T06:46:04.628Z,7.00
2018-05-08T06:47:04.549Z,6.70
2018-05-08T06:48:04.460Z,7.00
2018-05-08T06:49:04.368Z,6.60
2018-05-08T06:50:04.289Z,6.70
2018-05-08T06:51:04.199Z,6.50
2018-05-08T06:52:04.109Z,6.50
2018-05-08T06:53:04.029Z,6.60
2018-05-08T06:54:03.940Z,6.40
2018-05-08T06:55:03.849Z,6.10
2018-05-08T06:56:03.769Z,6.30
2018-05-08T06:57:03.679Z,6.60
2018-05-08T06:58:03.603Z,6.20
2018-05-08T06:59:03.509Z,6.50
2018-05-08T07:00:03.420Z,6.80
2018-05-08T07:01:03.346Z,6.90
2018-05-08T07:02:03.250Z,7.00
2018-05-08T07:03:03.171Z,6.80
2018-05-08T07:04:03.081Z,6.50
2018-05-08T07:05:02.990Z,7.10
2018-05-08T07:06:02.924Z,6.90
2018-05-08T07:07:02.821Z,6.50
2018-05-08T07:08:02.743Z,6.20
2018-05-08T07:09:02.692Z,7.00
2018-05-08T07:10:02.587Z,6.30
2018-05-08T07:11:02.484Z,6.60
2018-05-08T07:12:02.393Z,6.60
2018-05-08T07:13:02.312Z,6.40
2018-05-08T07:14:02.222Z,6.70
2018-05-08T07:15:02.144Z,6.40
2018-05-08T07:16:02.181Z,6.50
2018-05-08T07:17:01.975Z,7.10
2018-05-08T07:18:01.886Z,6.50
2018-05-08T07:19:01.810Z,6.60
2018-05-08T07:20:01.717Z,6.60
2018-05-08T07:21:01.636Z,6.40
2018-05-08T07:22:01.546Z,6.20
2018-05-08T07:23:01.468Z,6.20
2018-05-08T07:24:01.395Z,6.00
2018-05-08T07:25:01.299Z,5.80
2018-05-08T07:26:01.211Z,5.80
2018-05-08T07:27:01.130Z,6.20
2018-05-08T07:28:01.038Z,6.20
2018-05-08T07:29:00.959Z,5.80
2018-05-08T07:30:00.894Z,6.40
2018-05-08T07:31:00.835Z,6.30
2018-05-08T07:32:00.701Z,6.60
2018-05-08T07:33:00.621Z,6.90
2018-05-08T07:34:00.548Z,6.20
2018-05-08T07:35:00.457Z,6.20
2018-05-08T07:36:00.378Z,6.20
2018-05-08T07:37:00.283Z,6.50
2018-05-08T07:38:00.219Z,5.80
2018-05-08T07:39:00.122Z,6.70
2018-05-08T07:40:00.037Z,6.70
2018-05-08T07:40:59.947Z,6.50
2018-05-08T07:41:59.867Z,6.30
2018-05-08T07:42:59.789Z,6.10
2018-05-08T07:43:59.700Z,6.30
2018-05-08T07:44:59.622Z,5.90
2018-05-08T07:45:59.528Z,6.20
2018-05-08T07:46:59.450Z,5.90
2018-05-08T07:47:59.360Z,6.00
2018-05-08T07:48:59.268Z,5.60
2018-05-08T07:49:59.190Z,6.20
2018-05-08T07:50:59.100Z,5.80
2018-05-08T07:51:59.010Z,6.10
2018-05-08T07:52:58.930Z,6.40
2018-05-08T07:53:58.840Z,6.40
2018-05-08T07:54:58.761Z,5.90
2018-05-08T07:55:58.670Z,5.50
2018-05-08T07:56:58.580Z,5.90
2018-05-08T07:57:58.502Z,6.10
2018-05-08T07:58:58.410Z,5.80
2018-05-08T07:59:58.321Z,6.30
2018-05-08T08:00:58.230Z,5.50
2018-05-08T08:01:58.144Z,5.00
2018-05-08T08:02:58.063Z,6.00
2018-05-08T08:03:57.968Z,5.40
2018-05-08T08:04:57.879Z,5.50
2018-05-08T08:05:57.800Z,5.30
2018-05-08T08:06:57.697Z,5.10
2018-05-08T08:07:57.605Z,5.20
2018-05-08T08:08:57.526Z,5.30
2018-05-08T08:09:57.437Z,5.00
2018-05-08T08:10:57.345Z,5.20
2018-05-08T08:11:57.254Z,5.00
2018-05-08T08:12:57.163Z,4.90
2018-05-08T08:13:57.073Z,4.60
2018-05-08T08:14:56.983Z,4.80
2018-05-08T08:15:56.892Z,4.60
2018-05-08T08:16:56.802Z,5.20
2018-05-08T08:17:56.721Z,4.20
2018-05-08T08:18:56.632Z,4.00
2018-05-08T08:19:56.803Z,4.40
2018-05-08T08:20:56.451Z,4.30
2018-05-08T08:21:56.358Z,4.40
2018-05-08T08:22:56.269Z,4.10
2018-05-08T08:23:56.285Z,4.20
2018-05-08T08:24:56.087Z,3.90
2018-05-08T08:25:55.996Z,4.10
2018-05-08T08:26:55.905Z,4.20
2018-05-08T08:27:55.814Z,4.10
2018-05-08T08:28:55.725Z,3.70
2018-05-08T08:29:55.632Z,4.40
2018-05-08T08:30:55.543Z,3.80
2018-05-08T08:31:55.464Z,3.90
2018-05-08T08:32:55.361Z,3.80
2018-05-08T08:33:55.273Z,3.80
2018-05-08T08:34:55.182Z,3.90
2018-05-08T08:35:55.104Z,3.70
2018-05-08T08:36:54.998Z,3.80
2018-05-08T08:37:54.907Z,3.90
2018-05-08T08:38:54.817Z,4.10
2018-05-08T08:39:54.725Z,3.60
2018-05-08T08:40:54.669Z,3.50
2018-05-08T08:41:54.544Z,4.20
2018-05-08T08:42:54.464Z,3.90
2018-05-08T08:43:54.362Z,3.50
2018-05-08T08:44:54.271Z,3.50
2018-05-08T08:45:54.180Z,3.10
2018-05-08T08:46:54.090Z,3.00
2018-05-08T08:47:54.077Z,2.60
2018-05-08T08:48:53.908Z,2.90
2018-05-08T08:49:53.816Z,2.80
2018-05-08T08:50:53.730Z,2.70
2018-05-08T08:51:53.635Z,3.20
2018-05-08T08:52:53.545Z,3.10
2018-05-08T08:53:53.455Z,3.10
2018-05-08T08:54:53.364Z,3.40
2018-05-08T08:55:53.272Z,3.20
2018-05-08T08:56:53.182Z,3.20
2018-05-08T08:57:53.107Z,3.40
2018-05-08T08:58:53.012Z,3.10
2018-05-08T08:59:52.922Z,3.00
2018-05-08T09:00:52.832Z,3.00
2018-05-08T09:01:52.745Z,2.90
2018-05-08T09:02:52.663Z,3.00
2018-05-08T09:03:52.572Z,2.90
2018-05-08T09:04:52.481Z,2.80
2018-05-08T09:05:52.403Z,2.50
2018-05-08T09:06:52.313Z,2.90
2018-05-08T09:07:52.221Z,2.80
2018-05-08T09:08:52.142Z,3.00
2018-05-08T09:09:52.054Z,2.60
2018-05-08T09:10:51.975Z,3.00
2018-05-08T09:11:51.883Z,2.70
2018-05-08T09:12:51.809Z,2.70
2018-05-08T09:13:51.712Z,2.60
2018-05-08T09:14:51.652Z,3.00
2018-05-08T09:15:51.545Z,3.10
2018-05-08T09:16:51.466Z,3.00
2018-05-08T09:17:51.376Z,3.10
2018-05-08T09:18:51.296Z,2.80
2018-05-08T09:19:51.324Z,2.40
2018-05-08T09:20:51.128Z,2.60
2018-05-08T09:21:51.050Z,2.70
2018-05-08T09:22:50.974Z,2.70
2018-05-08T09:23:50.880Z,2.70
2018-05-08T09:24:50.804Z,2.90
2018-05-08T09:25:50.723Z,2.50
2018-05-08T09:26:50.634Z,2.70
2018-05-08T09:27:50.555Z,3.00
2018-05-08T09:28:50.476Z,3.30
2018-05-08T09:29:50.384Z,3.00
2018-05-08T09:30:50.311Z,2.60
2018-05-08T09:31:50.230Z,2.60
2018-05-08T09:32:50.206Z,2.70
2018-05-08T09:33:50.059Z,2.90
2018-05-08T09:34:49.981Z,2.80
2018-05-08T09:35:49.905Z,3.20
2018-05-08T09:36:49.813Z,2.60
2018-05-08T09:37:49.733Z,3.00
2018-05-08T09:38:49.655Z,2.70
2018-05-08T09:39:49.576Z,2.90
2018-05-08T09:40:49.502Z,2.70
2018-05-08T09:41:49.409Z,2.80
2018-05-08T09:42:49.330Z,2.60
2018-05-08T09:43:49.252Z,2.90
2018-05-08T09:44:49.177Z,2.80
2018-05-08T09:45:49.083Z,3.10
2018-05-08T09:46:49.003Z,3.10
2018-05-08T09:47:48.928Z,2.90
2018-05-08T09:48:48.861Z,2.60
2018-05-08T09:49:48.769Z,2.90
2018-05-08T09:50:48.678Z,3.00
2018-05-08T09:51:48.601Z,3.00
2018-05-08T09:52:48.522Z,3.00
2018-05-08T09:53:48.443Z,2.90
2018-05-08T09:54:48.352Z,2.80
2018-05-08T09:55:48.274Z,2.90
2018-05-08T09:56:48.195Z,2.80
2018-05-08T09:57:48.122Z,3.10
2018-05-08T09:58:48.027Z,3.20
2018-05-08T09:59:47.950Z,3.20
2018-05-08T10:00:47.876Z,3.00
2018-05-08T10:01:47.791Z,3.30
2018-05-08T10:02:47.701Z,2.90
2018-05-08T10:03:47.622Z,2.60
2018-05-08T10:04:47.544Z,2.60
2018-05-08T10:05:47.495Z,2.80
2018-05-08T10:06:47.413Z,3.00
2018-05-08T10:07:47.297Z,2.80
2018-05-08T10:08:47.218Z,2.90
2018-05-08T10:09:47.140Z,2.90
2018-05-08T10:10:47.050Z,2.70
2018-05-08T10:11:46.971Z,2.90
2018-05-08T10:12:46.893Z,3.40
2018-05-08T10:13:46.827Z,3.20
2018-05-08T10:14:46.736Z,2.90
2018-05-08T10:15:46.647Z,3.00
2018-05-08T10:16:46.567Z,2.70
2018-05-08T10:17:46.488Z,2.80
2018-05-08T10:18:46.477Z,2.70
2018-05-08T10:19:46.333Z,2.80
2018-05-08T10:20:46.325Z,3.10
2018-05-08T10:21:46.167Z,2.70
2018-05-08T10:22:46.084Z,2.90
2018-05-08T10:23:46.012Z,2.90
2018-05-08T10:24:45.927Z,2.30
2018-05-08T10:25:45.849Z,2.60
2018-05-08T10:26:45.780Z,2.90
2018-05-08T10:27:45.695Z,2.80
2018-05-08T10:28:45.614Z,2.80
2018-05-08T10:29:45.538Z,3.00
2018-05-08T10:30:45.458Z,2.70
2018-05-08T10:31:45.369Z,2.40
2018-05-08T10:32:45.290Z,2.90
2018-05-08T10:33:45.211Z,2.70
2018-05-08T10:34:45.133Z,2.70
2018-05-08T10:35:45.055Z,2.50
2018-05-08T10:36:44.978Z,3.10
2018-05-08T10:37:44.898Z,2.80
2018-05-08T10:38:44.819Z,2.60
2018-05-08T10:39:44.742Z,2.60
2018-05-08T10:40:44.663Z,2.40
2018-05-08T10:41:44.584Z,2.60
2018-05-08T10:42:44.577Z,2.50
2018-05-08T10:43:44.431Z,2.60
2018-05-08T10:44:44.348Z,2.40
2018-05-08T10:45:44.271Z,2.60
2018-05-08T10:46:44.195Z,2.60
2018-05-08T10:47:44.103Z,2.80
2018-05-08T10:48:44.024Z,2.40
2018-05-08T10:49:43.946Z,2.80
2018-05-08T10:50:43.867Z,2.60
2018-05-08T10:51:43.790Z,2.40
2018-05-08T10:52:43.710Z,2.60
2018-05-08T10:53:43.644Z,2.50
2018-05-08T10:54:43.553Z,3.00
2018-05-08T10:55:43.502Z,2.70
2018-05-08T10:56:43.396Z,2.70
2018-05-08T10:57:43.406Z,2.10
2018-05-08T10:58:43.240Z,2.40
2018-05-08T10:59:43.161Z,3.60
2018-05-08T11:00:43.082Z,3.00
2018-05-08T11:01:43.060Z,3.50
2018-05-08T11:02:42.926Z,4.50
2018-05-08T11:03:42.849Z,3.60
2018-05-08T11:04:42.760Z,3.70
2018-05-08T11:05:42.680Z,3.70
2018-05-08T11:06:42.609Z,3.50
2018-05-08T11:07:42.523Z,4.20
2018-05-08T11:08:42.445Z,3.50
2018-05-08T11:09:42.366Z,2.60
2018-05-08T11:10:42.291Z,2.80
2018-05-08T11:11:42.209Z,2.80
2018-05-08T11:12:42.135Z,4.50
2018-05-08T11:13:42.041Z,2.80
2018-05-08T11:14:41.962Z,2.90
2018-05-08T11:15:41.884Z,2.90
2018-05-08T11:16:41.805Z,2.70
2018-05-08T11:17:41.727Z,2.80
2018-05-08T11:18:41.648Z,3.00
2018-05-08T11:19:41.580Z,4.20
2018-05-08T11:20:41.495Z,2.80
2018-05-08T11:21:41.402Z,7.50
2018-05-08T11:22:41.322Z,6.60
2018-05-08T11:23:41.245Z,3.70
2018-05-08T11:24:41.172Z,4.50
2018-05-08T11:25:41.092Z,6.30
2018-05-08T11:26:41.129Z,4.00
2018-05-08T11:27:40.919Z,3.90
2018-05-08T11:28:40.844Z,4.50
2018-05-08T11:29:40.761Z,3.00
2018-05-08T11:30:40.697Z,3.90
2018-05-08T11:31:40.593Z,4.60
2018-05-08T11:32:40.515Z,3.00
2018-05-08T11:33:40.430Z,4.30
2018-05-08T11:34:40.344Z,4.10
2018-05-08T11:35:40.259Z,5.40
2018-05-08T11:36:40.177Z,6.70
2018-05-08T11:37:40.087Z,6.20
2018-05-08T11:38:40.010Z,5.50
2018-05-08T11:39:39.917Z,3.10
2018-05-08T11:40:39.839Z,2.80
2018-05-08T11:41:39.747Z,2.80
2018-05-08T11:42:39.668Z,2.70
2018-05-08T11:43:39.579Z,2.70
2018-05-08T11:44:39.548Z,2.80
2018-05-08T11:45:39.429Z,2.60
2018-05-08T11:46:39.319Z,2.80
2018-05-08T11:47:39.228Z,3.10
2018-05-08T11:48:39.148Z,2.90
2018-05-08T11:49:39.066Z,2.60
2018-05-08T11:50:38.968Z,3.00
2018-05-08T11:51:38.890Z,2.70
2018-05-08T11:52:38.798Z,3.00
2018-05-08T11:53:38.707Z,2.80
2018-05-08T11:54:38.617Z,2.90
2018-05-08T11:55:38.538Z,3.00
2018-05-08T11:56:38.447Z,2.70
2018-05-08T11:57:38.359Z,2.70
2018-05-08T11:58:38.266Z,3.00
2018-05-08T11:59:38.189Z,2.90
2018-05-08T12:00:38.098Z,2.60
2018-05-08T12:01:38.005Z,2.90
2018-05-08T12:02:37.963Z,2.60
2018-05-08T12:03:37.823Z,3.10
2018-05-08T12:04:37.735Z,2.90
2018-05-08T12:05:37.655Z,2.90
2018-05-08T12:06:37.564Z,2.90
2018-05-08T12:07:37.478Z,3.10
2018-05-08T12:08:37.396Z,3.00
2018-05-08T12:09:37.304Z,3.00
2018-05-08T12:10:37.214Z,3.00
2018-05-08T12:11:37.136Z,3.00
2018-05-08T12:12:37.045Z,3.40
2018-05-08T12:13:36.954Z,3.00
2018-05-08T12:14:36.883Z,3.50
2018-05-08T12:15:36.785Z,3.10
2018-05-08T12:16:36.706Z,2.80
2018-05-08T12:17:36.616Z,3.00
2018-05-08T12:18:36.537Z,3.10
2018-05-08T12:19:36.446Z,3.10
2018-05-08T12:20:36.357Z,3.20
2018-05-08T12:21:36.278Z,3.20
2018-05-08T12:22:36.186Z,2.80
2018-05-08T12:23:36.096Z,2.90
2018-05-08T12:24:36.018Z,3.00
2018-05-08T12:25:35.986Z,3.20
2018-05-08T12:26:35.838Z,3.00
2018-05-08T12:27:35.765Z,3.30
2018-05-08T12:28:35.666Z,3.40
2018-05-08T12:29:35.576Z,3.30
2018-05-08T12:30:35.522Z,3.20
2018-05-08T12:31:35.406Z,3.50
2018-05-08T12:32:35.319Z,3.50
2018-05-08T12:33:35.225Z,3.20
2018-05-08T12:34:35.242Z,3.30
2018-05-08T12:35:35.056Z,3.50
2018-05-08T12:36:34.967Z,3.50
2018-05-08T12:37:34.878Z,3.40
2018-05-08T12:38:34.797Z,3.10
2018-05-08T12:39:34.705Z,3.40
2018-05-08T12:40:34.615Z,3.40
2018-05-08T12:41:34.524Z,3.00
2018-05-08T12:42:34.433Z,3.30
2018-05-08T12:43:34.355Z,3.10
2018-05-08T12:44:34.262Z,3.20
2018-05-08T12:45:34.177Z,3.00
2018-05-08T12:46:34.081Z,3.10
2018-05-08T12:47:33.993Z,3.20
2018-05-08T12:48:33.914Z,3.10
2018-05-08T12:49:33.821Z,2.80
2018-05-08T12:50:33.755Z,3.10
2018-05-08T12:51:33.642Z,3.10
2018-05-08T12:52:33.552Z,3.20
2018-05-08T12:53:33.459Z,2.90
2018-05-08T12:54:33.380Z,3.10
2018-05-08T12:55:33.290Z,3.20
2018-05-08T12:56:33.198Z,3.20
2018-05-08T12:57:33.108Z,3.10
2018-05-08T12:58:33.016Z,3.20
2018-05-08T12:59:32.927Z,3.00
2018-05-08T13:00:32.849Z,3.30
2018-05-08T13:01:32.759Z,3.50
2018-05-08T13:02:32.667Z,2.80
2018-05-08T13:03:32.575Z,3.20
2018-05-08T13:04:32.484Z,3.00
2018-05-08T13:05:32.393Z,3.20
2018-05-08T13:06:32.315Z,3.40
2018-05-08T13:07:32.226Z,3.30
2018-05-08T13:08:32.141Z,3.30
2018-05-08T13:09:32.045Z,3.10
2018-05-08T13:10:31.952Z,3.30
2018-05-08T13:11:31.862Z,3.20
2018-05-08T13:12:31.770Z,2.90
2018-05-08T13:13:31.692Z,3.00
2018-05-08T13:14:31.600Z,2.80
2018-05-08T13:15:31.509Z,2.80
2018-05-08T13:16:31.420Z,2.70
2018-05-08T13:17:31.329Z,2.70